createdAt,value
2022-10-09T00:01:10.240Z,102721.91
2022-10-09T00:03:38.470Z,102727.53
2022-10-09T00:06:06.817Z,102725.56
2022-10-09T00:08:39.565Z,102726.78
2022-10-09T00:11:08.180Z,102724.75
2022-10-09T00:13:35.732Z,102718.56
2022-10-09T00:16:05.006Z,102725.56
2022-10-09T00:18:31.878Z,102728.38
2022-10-09T00:20:59.013Z,102724.59
2022-10-09T00:23:25.747Z,102735.19
2022-10-09T00:25:58.220Z,102724.03
2022-10-09T00:28:27.083Z,102729.22
2022-10-09T00:30:54.290Z,102731.19
2022-10-09T00:33:21.938Z,102730.41
2022-10-09T00:35:49.446Z,102730.00
2022-10-09T00:38:16.537Z,102722.84
2022-10-09T00:40:43.496Z,102728.03
2022-10-09T00:43:19.401Z,102720.66
2022-10-09T00:45:53.765Z,102720.88
2022-10-09T00:48:21.725Z,102722.06
2022-10-09T00:50:58.023Z,102713.72
2022-10-09T00:53:28.894Z,102718.31
2022-10-09T00:55:56.260Z,102719.28
2022-10-09T00:58:24.486Z,102716.91
2022-10-09T01:00:52.047Z,102725.09
2022-10-09T01:03:18.883Z,102714.72
2022-10-09T01:05:45.586Z,102721.94
2022-10-09T01:08:22.176Z,102718.75
2022-10-09T01:10:48.877Z,102719.72
2022-10-09T01:13:24.690Z,102717.34
2022-10-09T01:15:59.427Z,102723.34
2022-10-09T01:18:52.571Z,102714.97
2022-10-09T01:21:28.562Z,102715.16
2022-10-09T01:24:22.264Z,102716.16
2022-10-09T01:27:01.208Z,102708.19
2022-10-09T01:29:36.219Z,102704.00
2022-10-09T01:32:05.770Z,102700.81
2022-10-09T01:34:34.012Z,102698.63
2022-10-09T01:37:01.277Z,102697.44
2022-10-09T01:39:30.466Z,102688.09
2022-10-09T01:41:57.953Z,102687.50
2022-10-09T01:44:30.197Z,102693.66
2022-10-09T01:46:57.240Z,102692.69
2022-10-09T01:49:41.187Z,102689.50
2022-10-09T01:52:32.735Z,102684.91
2022-10-09T01:55:14.050Z,102677.31
2022-10-09T01:57:46.664Z,102679.94
2022-10-09T02:00:14.813Z,102677.31
2022-10-09T02:02:43.207Z,102664.97
2022-10-09T02:05:12.753Z,102672.72
2022-10-09T02:07:39.821Z,102668.38
2022-10-09T02:10:08.971Z,102667.56
2022-10-09T02:12:41.562Z,102664.97
2022-10-09T02:15:09.628Z,102671.34
2022-10-09T02:17:42.468Z,102665.59
2022-10-09T02:20:35.163Z,102669.97
2022-10-09T02:23:06.827Z,102659.22
2022-10-09T02:25:34.527Z,102654.03
2022-10-09T02:28:01.862Z,102648.84
2022-10-09T02:30:39.442Z,102646.44
2022-10-09T02:33:06.298Z,102651.63
2022-10-09T02:35:33.464Z,102650.06
2022-10-09T02:38:00.187Z,102649.28
2022-10-09T02:40:26.969Z,102648.44
2022-10-09T02:42:53.807Z,102648.44
2022-10-09T02:45:20.616Z,102645.88
2022-10-09T02:47:47.377Z,102643.28
2022-10-09T02:50:14.134Z,102655.25
2022-10-09T02:52:40.882Z,102644.88
2022-10-09T02:55:07.979Z,102650.06
2022-10-09T02:57:34.799Z,102649.28
2022-10-09T03:00:01.591Z,102643.50
2022-10-09T03:02:28.381Z,102641.31
2022-10-09T03:04:55.249Z,102638.91
2022-10-09T03:07:22.012Z,102639.91
2022-10-09T03:09:48.793Z,102646.91
2022-10-09T03:12:21.294Z,102637.72
2022-10-09T03:14:48.128Z,102647.50
2022-10-09T03:17:14.891Z,102642.53
2022-10-09T03:19:41.685Z,102642.75
2022-10-09T03:22:08.496Z,102642.16
2022-10-09T03:24:35.331Z,102648.31
2022-10-09T03:27:02.155Z,102643.34
2022-10-09T03:29:28.841Z,102642.97
2022-10-09T03:31:55.722Z,102640.78
2022-10-09T03:34:22.541Z,102643.38
2022-10-09T03:36:49.482Z,102643.38
2022-10-09T03:39:16.330Z,102645.38
2022-10-09T03:41:43.131Z,102641.97
2022-10-09T03:44:09.918Z,102644.56
2022-10-09T03:46:36.794Z,102637.78
2022-10-09T03:49:03.724Z,102642.19
2022-10-09T03:51:30.499Z,102636.00
2022-10-09T03:53:57.298Z,102634.59
2022-10-09T03:56:24.130Z,102645.78
2022-10-09T03:58:50.920Z,102640.00
2022-10-09T04:01:17.725Z,102642.59
2022-10-09T04:03:44.516Z,102654.97
2022-10-09T04:06:11.561Z,102652.56
2022-10-09T04:08:38.508Z,102656.97
2022-10-09T04:11:05.493Z,102650.16
2022-10-09T04:13:32.253Z,102652.16
2022-10-09T04:15:59.146Z,102652.16
2022-10-09T04:18:26.217Z,102658.34
2022-10-09T04:20:55.865Z,102662.72
2022-10-09T04:23:24.927Z,102654.78
2022-10-09T04:25:59.624Z,102651.78
2022-10-09T04:28:28.530Z,102648.41
2022-10-09T04:30:57.601Z,102644.41
2022-10-09T04:33:25.216Z,102641.81
2022-10-09T04:35:54.240Z,102637.06
2022-10-09T04:38:22.292Z,102636.03
2022-10-09T04:41:02.998Z,102638.03
2022-10-09T04:43:30.735Z,102632.28
2022-10-09T04:45:57.675Z,102634.25
2022-10-09T04:48:25.808Z,102630.88
2022-10-09T04:50:52.696Z,102629.50
2022-10-09T04:53:19.534Z,102623.13
2022-10-09T04:55:46.377Z,102624.31
2022-10-09T04:58:14.197Z,102634.06
2022-10-09T05:00:43.423Z,102626.91
2022-10-09T05:03:11.154Z,102628.91
2022-10-09T05:05:38.036Z,102629.91
2022-10-09T05:08:05.297Z,102630.91
2022-10-09T05:10:32.996Z,102626.75
2022-10-09T05:13:00.307Z,102634.69
2022-10-09T05:15:27.813Z,102630.72
2022-10-09T05:17:54.771Z,102627.53
2022-10-09T05:20:21.717Z,102618.34
2022-10-09T05:22:49.625Z,102617.94
2022-10-09T05:25:16.635Z,102619.94
2022-10-09T05:27:43.445Z,102617.56
2022-10-09T05:30:10.879Z,102625.53
2022-10-09T05:32:37.723Z,102616.56
2022-10-09T05:35:04.771Z,102618.38
2022-10-09T05:37:31.577Z,102624.72
2022-10-09T05:39:58.276Z,102622.97
2022-10-09T05:42:25.020Z,102608.41
2022-10-09T05:44:51.810Z,102617.78
2022-10-09T05:47:19.876Z,102610.22
2022-10-09T05:49:46.905Z,102609.19
2022-10-09T05:52:13.711Z,102618.56
2022-10-09T05:54:42.068Z,102614.38
2022-10-09T05:57:10.101Z,102611.19
2022-10-09T05:59:36.847Z,102614.78
2022-10-09T06:02:04.326Z,102620.75
2022-10-09T06:04:31.092Z,102624.94
2022-10-09T06:06:57.862Z,102628.31
2022-10-09T06:09:26.268Z,102628.31
2022-10-09T06:11:54.695Z,102621.34
2022-10-09T06:14:22.347Z,102629.53
2022-10-09T06:16:49.924Z,102632.09
2022-10-09T06:19:18.496Z,102637.88
2022-10-09T06:21:46.476Z,102637.47
2022-10-09T06:24:28.603Z,102639.88
2022-10-09T06:26:56.903Z,102639.47
2022-10-09T06:29:23.797Z,102641.84
2022-10-09T06:31:50.596Z,102647.25
2022-10-09T06:34:17.360Z,102645.06
2022-10-09T06:36:44.140Z,102641.66
2022-10-09T06:39:11.333Z,102647.84
2022-10-09T06:41:38.275Z,102643.44
2022-10-09T06:44:07.713Z,102633.09
2022-10-09T06:46:37.688Z,102633.84
2022-10-09T06:49:05.872Z,102637.25
2022-10-09T06:51:33.784Z,102633.03
2022-10-09T06:54:02.932Z,102637.81
2022-10-09T06:56:31.947Z,102643.78
2022-10-09T06:59:03.940Z,102640.16
2022-10-09T07:01:32.295Z,102648.91
2022-10-09T07:04:07.142Z,102648.06
2022-10-09T07:06:38.084Z,102638.63
2022-10-09T07:09:08.014Z,102641.97
2022-10-09T07:11:40.828Z,102648.28
2022-10-09T07:14:09.580Z,102645.03
2022-10-09T07:16:42.026Z,102652.75
2022-10-09T07:19:11.480Z,102649.50
2022-10-09T07:21:40.445Z,102644.22
2022-10-09T07:24:08.138Z,102646.69
2022-10-09T07:26:37.375Z,102646.00
2022-10-09T07:29:05.897Z,102637.28
2022-10-09T07:31:32.753Z,102639.19
2022-10-09T07:33:59.693Z,102630.69
2022-10-09T07:36:26.904Z,102637.97
2022-10-09T07:38:56.253Z,102640.84
2022-10-09T07:41:24.943Z,102635.72
2022-10-09T07:43:51.942Z,102641.38
2022-10-09T07:46:21.023Z,102639.81
2022-10-09T07:48:48.484Z,102641.13
2022-10-09T07:51:20.814Z,102643.41
2022-10-09T07:53:48.221Z,102638.34
2022-10-09T07:56:35.914Z,102648.66
2022-10-09T07:59:05.531Z,102643.81
2022-10-09T08:01:34.108Z,102650.94
2022-10-09T08:04:01.846Z,102636.47
2022-10-09T08:06:29.207Z,102640.22
2022-10-09T08:08:57.741Z,102640.56
2022-10-09T08:11:26.678Z,102638.09
2022-10-09T08:13:54.069Z,102630.41
2022-10-09T08:16:22.413Z,102636.28
2022-10-09T08:18:49.697Z,102628.63
2022-10-09T08:21:18.731Z,102634.97
2022-10-09T08:23:46.328Z,102627.28
2022-10-09T08:26:18.672Z,102622.16
2022-10-09T08:28:54.521Z,102629.09
2022-10-09T08:31:22.528Z,102628.78
2022-10-09T08:33:53.758Z,102625.25
2022-10-09T08:36:21.733Z,102624.13
2022-10-09T08:38:48.837Z,102619.81
2022-10-09T08:41:48.736Z,102619.69
2022-10-09T08:44:24.256Z,102608.34
2022-10-09T08:47:05.603Z,102613.47
2022-10-09T08:50:09.444Z,102606.84
2022-10-09T08:53:00.940Z,102604.38
2022-10-09T08:55:29.203Z,102604.22
2022-10-09T08:58:01.091Z,102607.25
2022-10-09T09:00:35.930Z,102601.44
2022-10-09T09:03:27.587Z,102599.28
2022-10-09T09:06:27.156Z,102594.25
2022-10-09T09:09:16.806Z,102592.81
2022-10-09T09:12:08.912Z,102586.75
2022-10-09T09:14:58.351Z,102587.97
2022-10-09T09:17:46.456Z,102582.41
2022-10-09T09:20:16.613Z,102591.44
2022-10-09T09:22:50.432Z,102582.44
2022-10-09T09:25:22.724Z,102578.59
2022-10-09T09:27:50.115Z,102574.03
2022-10-09T09:30:38.604Z,102566.09
2022-10-09T09:33:37.321Z,102562.59
2022-10-09T09:36:29.219Z,102570.88
2022-10-09T09:39:45.510Z,102563.16
2022-10-09T09:41:44.060Z,102562.25
2022-10-09T09:44:13.614Z,102561.34
2022-10-09T09:46:42.047Z,102551.78
2022-10-09T09:49:19.255Z,102561.56
2022-10-09T09:51:47.393Z,102553.28
2022-10-09T09:54:22.945Z,102545.00
2022-10-09T09:59:41.616Z,102536.91
2022-10-09T10:02:22.799Z,102532.78
2022-10-09T10:04:51.696Z,102530.75
2022-10-09T10:07:33.809Z,102522.56
2022-10-09T10:10:24.006Z,102521.06
2022-10-09T10:12:52.318Z,102524.84
2022-10-09T10:15:23.396Z,102520.44
2022-10-09T10:17:57.643Z,102513.41
2022-10-09T10:20:25.014Z,102521.06
2022-10-09T10:22:54.054Z,102510.09
2022-10-09T10:25:25.459Z,102514.56
2022-10-09T10:27:58.291Z,102513.03
2022-10-09T10:30:25.463Z,102505.38
2022-10-09T10:32:58.937Z,102497.47
2022-10-09T10:35:35.935Z,102496.66
2022-10-09T10:38:13.243Z,102495.28
2022-10-09T10:40:46.627Z,102488.16
2022-10-09T10:43:39.592Z,102484.97
2022-10-09T10:46:29.640Z,102483.84
2022-10-09T10:48:59.133Z,102475.38
2022-10-09T10:51:53.984Z,102471.66
2022-10-09T10:54:23.884Z,102471.59
2022-10-09T10:57:16.889Z,102462.97
2022-10-09T11:00:04.152Z,102457.03
2022-10-09T11:02:55.334Z,102452.66
2022-10-09T11:05:39.060Z,102456.78
2022-10-09T11:08:43.229Z,102456.16
2022-10-09T11:11:14.830Z,102447.84
2022-10-09T11:14:05.736Z,102453.44
2022-10-09T11:16:59.136Z,102443.66
2022-10-09T11:19:53.134Z,102439.00
2022-10-09T11:22:37.183Z,102428.88
2022-10-09T11:25:30.090Z,102425.91
2022-10-09T11:28:18.906Z,102429.06
2022-10-09T11:30:58.018Z,102418.09
2022-10-09T11:33:38.866Z,102415.16
2022-10-09T11:36:45.265Z,102411.69
2022-10-09T11:39:19.981Z,102409.97
2022-10-09T11:41:49.208Z,102404.69
2022-10-09T11:44:44.563Z,102396.56
2022-10-09T11:47:14.051Z,102395.63
2022-10-09T11:50:31.350Z,102389.91
2022-10-09T11:53:21.069Z,102385.78
2022-10-09T11:55:48.665Z,102377.97
2022-10-09T11:58:26.061Z,102374.47
2022-10-09T12:00:55.494Z,102374.03
2022-10-09T12:03:38.451Z,102363.00
2022-10-09T12:06:07.550Z,102362.91
2022-10-09T12:08:35.043Z,102360.19
2022-10-09T12:11:15.077Z,102346.38
2022-10-09T12:13:52.296Z,102343.44
2022-10-09T12:16:42.905Z,102329.47
2022-10-09T12:19:15.848Z,102322.31
2022-10-09T12:22:14.917Z,102311.81
2022-10-09T12:24:48.637Z,102315.44
2022-10-09T12:27:25.580Z,102310.06
2022-10-09T12:30:21.038Z,102301.22
2022-10-09T12:32:57.222Z,102294.19
2022-10-09T12:35:36.858Z,102293.97
2022-10-09T12:38:24.516Z,102292.56
2022-10-09T12:40:53.647Z,102284.94
2022-10-09T12:43:22.877Z,102278.28
2022-10-09T12:45:51.208Z,102278.88
2022-10-09T12:48:22.526Z,102270.72
2022-10-09T12:50:50.061Z,102265.50
2022-10-09T12:53:23.010Z,102263.38
2022-10-09T12:55:57.935Z,102254.84
2022-10-09T12:58:26.639Z,102257.34
2022-10-09T13:01:02.292Z,102237.03
2022-10-09T13:03:38.362Z,102239.19
2022-10-09T13:06:16.026Z,102233.63
2022-10-09T13:08:44.453Z,102237.50
2022-10-09T13:11:41.207Z,102229.91
2022-10-09T13:14:28.353Z,102224.34
2022-10-09T13:16:55.545Z,102215.97
2022-10-09T13:19:31.818Z,102213.22
2022-10-09T13:22:07.515Z,102202.44
2022-10-09T13:24:36.135Z,102205.09
2022-10-09T13:27:04.762Z,102198.22
2022-10-09T13:29:32.147Z,102192.31
2022-10-09T13:31:59.084Z,102189.97
2022-10-09T13:34:29.180Z,102182.50
2022-10-09T13:36:56.988Z,102177.81
2022-10-09T13:39:23.927Z,102168.00
2022-10-09T13:41:55.683Z,102169.41
2022-10-09T13:44:22.575Z,102172.81
2022-10-09T13:46:49.675Z,102163.66
2022-10-09T13:49:16.638Z,102165.25
2022-10-09T13:51:43.655Z,102163.00
2022-10-09T13:54:10.470Z,102161.53
2022-10-09T13:56:37.349Z,102157.47
2022-10-09T13:59:04.668Z,102161.22
2022-10-09T14:01:31.691Z,102153.69
2022-10-09T14:03:58.594Z,102153.38
2022-10-09T14:06:25.518Z,102152.19
2022-10-09T14:08:52.985Z,102146.47
2022-10-09T14:11:20.279Z,102138.66
2022-10-09T14:13:47.243Z,102139.91
2022-10-09T14:16:14.600Z,102133.94
2022-10-09T14:18:41.590Z,102123.97
2022-10-09T14:21:15.233Z,102120.94
2022-10-09T14:23:43.173Z,102116.53
2022-10-09T14:26:10.156Z,102117.22
2022-10-09T14:28:37.411Z,102112.97
2022-10-09T14:31:06.451Z,102113.38
2022-10-09T14:33:33.701Z,102108.91
2022-10-09T14:36:13.255Z,102107.50
2022-10-09T14:38:41.442Z,102096.22
2022-10-09T14:41:09.709Z,102087.81
2022-10-09T14:43:36.695Z,102090.28
2022-10-09T14:46:17.019Z,102076.88
2022-10-09T14:48:49.920Z,102076.81
2022-10-09T14:51:20.023Z,102080.94
2022-10-09T14:53:47.493Z,102079.03
2022-10-09T14:56:17.980Z,102075.03
2022-10-09T14:58:45.314Z,102065.63
2022-10-09T15:01:14.491Z,102069.94
2022-10-09T15:03:41.519Z,102054.31
2022-10-09T15:06:11.287Z,102060.38
2022-10-09T15:08:40.522Z,102057.47
2022-10-09T15:11:10.344Z,102048.59
2022-10-09T15:13:38.597Z,102044.50
2022-10-09T15:16:12.580Z,102041.00
2022-10-09T15:18:39.954Z,102042.44
2022-10-09T15:21:16.015Z,102041.47
2022-10-09T15:23:43.394Z,102034.03
2022-10-09T15:26:10.917Z,102030.56
2022-10-09T15:28:41.535Z,102022.56
2022-10-09T15:31:26.921Z,102025.66
2022-10-09T15:33:55.719Z,102021.88
2022-10-09T15:36:23.334Z,102006.84
2022-10-09T15:38:50.413Z,102005.34
2022-10-09T15:41:29.263Z,102009.47
2022-10-09T15:43:59.067Z,102009.50
2022-10-09T15:46:26.704Z,102001.75
2022-10-09T15:48:54.133Z,101998.69
2022-10-09T15:51:21.886Z,102000.38
2022-10-09T15:53:50.634Z,101992.81
2022-10-09T15:56:23.822Z,101990.31
2022-10-09T15:58:52.208Z,101988.03
2022-10-09T16:01:19.259Z,101981.00
2022-10-09T16:03:46.894Z,101975.00
2022-10-09T16:06:17.334Z,101977.69
2022-10-09T16:08:44.680Z,101966.25
2022-10-09T16:11:13.706Z,101961.03
2022-10-09T16:13:42.593Z,101965.28
2022-10-09T16:16:14.194Z,101954.31
2022-10-09T16:18:41.090Z,101963.81
2022-10-09T16:21:16.844Z,101952.09
2022-10-09T16:23:45.050Z,101954.00
2022-10-09T16:26:14.769Z,101954.31
2022-10-09T16:28:41.663Z,101955.44
2022-10-09T16:31:08.522Z,101948.44
2022-10-09T16:33:35.574Z,101951.88
2022-10-09T16:36:10.599Z,101950.44
2022-10-09T16:38:41.611Z,101953.31
2022-10-09T16:41:11.041Z,101952.09
2022-10-09T16:43:38.952Z,101950.28
2022-10-09T16:46:09.760Z,101954.00
2022-10-09T16:48:36.572Z,101949.34
2022-10-09T16:51:08.144Z,101941.03
2022-10-09T16:53:35.090Z,101938.94
2022-10-09T16:56:13.712Z,101950.31
2022-10-09T16:58:41.816Z,101945.34
2022-10-09T17:01:10.422Z,101940.69
2022-10-09T17:03:40.686Z,101949.66
2022-10-09T17:06:10.083Z,101953.09
2022-10-09T17:08:36.976Z,101946.88
2022-10-09T17:11:07.605Z,101939.84
2022-10-09T17:13:34.535Z,101942.50
2022-10-09T17:16:04.043Z,101937.81
2022-10-09T17:18:30.926Z,101938.63
2022-10-09T17:20:57.808Z,101937.31
2022-10-09T17:23:24.634Z,101931.56
2022-10-09T17:25:51.561Z,101939.97
2022-10-09T17:28:18.346Z,101941.81
2022-10-09T17:30:45.423Z,101936.06
2022-10-09T17:33:16.249Z,101934.75
2022-10-09T17:35:45.674Z,101930.06
2022-10-09T17:38:12.376Z,101927.72
2022-10-09T17:40:40.152Z,101928.00
2022-10-09T17:43:08.323Z,101927.47
2022-10-09T17:45:42.732Z,101934.53
2022-10-09T17:48:10.243Z,101926.97
2022-10-09T17:50:37.165Z,101926.41
2022-10-09T17:53:04.195Z,101924.06
2022-10-09T17:55:31.631Z,101912.56
2022-10-09T17:57:58.525Z,101912.03
2022-10-09T18:00:25.376Z,101916.47
2022-10-09T18:02:52.204Z,101911.50
2022-10-09T18:05:18.945Z,101909.13
2022-10-09T18:07:45.688Z,101907.81
2022-10-09T18:10:16.014Z,101911.19
2022-10-09T18:12:43.078Z,101901.00
2022-10-09T18:15:10.997Z,101896.53
2022-10-09T18:17:37.791Z,101898.09
2022-10-09T18:20:05.444Z,101894.91
2022-10-09T18:22:32.645Z,101896.47
2022-10-09T18:24:59.423Z,101892.78
2022-10-09T18:27:28.993Z,101890.16
2022-10-09T18:29:55.803Z,101892.22
2022-10-09T18:32:22.495Z,101899.50
2022-10-09T18:34:49.296Z,101895.03
2022-10-09T18:37:16.290Z,101892.69
2022-10-09T18:39:43.250Z,101882.22
2022-10-09T18:42:10.111Z,101893.16
2022-10-09T18:44:40.417Z,101880.09
2022-10-09T18:47:12.166Z,101883.47
2022-10-09T18:49:43.959Z,101878.47
2022-10-09T18:52:12.708Z,101878.19
2022-10-09T18:54:41.682Z,101877.91
2022-10-09T18:57:09.157Z,101878.91
2022-10-09T18:59:38.306Z,101873.44
2022-10-09T19:02:05.408Z,101871.03
2022-10-09T19:04:32.392Z,101868.13
2022-10-09T19:06:59.345Z,101874.09
2022-10-09T19:09:26.795Z,101868.88
2022-10-09T19:11:53.917Z,101876.91
2022-10-09T19:14:20.783Z,101872.44
2022-10-09T19:16:47.612Z,101862.50
2022-10-09T19:19:14.586Z,101869.53
2022-10-09T19:21:44.026Z,101857.22
2022-10-09T19:24:12.541Z,101859.78
2022-10-09T19:26:40.390Z,101858.72
2022-10-09T19:29:08.016Z,101859.72
2022-10-09T19:31:35.618Z,101849.00
2022-10-09T19:34:04.832Z,101855.97
2022-10-09T19:36:36.699Z,101852.31
2022-10-09T19:39:05.655Z,101854.59
2022-10-09T19:41:32.526Z,101852.75
2022-10-09T19:44:00.095Z,101850.91
2022-10-09T19:46:27.540Z,101850.59
2022-10-09T19:48:54.289Z,101849.50
2022-10-09T19:51:24.557Z,101840.63
2022-10-09T19:53:53.577Z,101834.81
2022-10-09T19:56:28.395Z,101840.00
2022-10-09T19:58:55.830Z,101834.69
2022-10-09T20:01:25.281Z,101827.38
2022-10-09T20:03:57.711Z,101827.31
2022-10-09T20:06:25.170Z,101825.22
2022-10-09T20:08:52.237Z,101824.13
2022-10-09T20:11:20.714Z,101817.03
2022-10-09T20:13:52.120Z,101816.72
2022-10-09T20:16:21.718Z,101810.97
2022-10-09T20:18:48.459Z,101810.16
2022-10-09T20:21:17.967Z,101803.06
2022-10-09T20:23:45.306Z,101796.78
2022-10-09T20:26:14.899Z,101797.28
2022-10-09T20:28:42.703Z,101795.66
2022-10-09T20:31:14.817Z,101801.09
2022-10-09T20:33:42.989Z,101796.63
2022-10-09T20:36:20.208Z,101798.13
2022-10-09T20:38:47.132Z,101799.38
2022-10-09T20:41:15.898Z,101795.47
2022-10-09T20:43:42.734Z,101796.97
2022-10-09T20:46:13.490Z,101803.91
2022-10-09T20:48:43.997Z,101794.25
2022-10-09T20:51:10.910Z,101792.59
2022-10-09T20:53:37.769Z,101787.31
2022-10-09T20:56:11.532Z,101786.00
2022-10-09T20:58:39.273Z,101781.31
2022-10-09T21:01:07.639Z,101772.41
2022-10-09T21:03:36.123Z,101765.38
2022-10-09T21:06:06.185Z,101767.22
2022-10-09T21:08:33.995Z,101760.19
2022-10-09T21:11:01.023Z,101762.78
2022-10-09T21:13:27.807Z,101761.75
2022-10-09T21:15:54.637Z,101753.94
2022-10-09T21:18:21.393Z,101756.31
2022-10-09T21:20:49.043Z,101753.47
2022-10-09T21:23:18.815Z,101751.88
2022-10-09T21:25:51.379Z,101748.28
2022-10-09T21:28:19.884Z,101752.69
2022-10-09T21:30:47.193Z,101747.19
2022-10-09T21:33:14.672Z,101751.34
2022-10-09T21:35:43.505Z,101746.63
2022-10-09T21:38:24.151Z,101749.72
2022-10-09T21:40:51.074Z,101743.97
2022-10-09T21:43:18.285Z,101739.00
2022-10-09T21:45:49.493Z,101732.69
2022-10-09T21:48:16.898Z,101736.34
2022-10-09T21:50:44.513Z,101733.97
2022-10-09T21:53:12.074Z,101734.22
2022-10-09T21:55:39.676Z,101729.28
2022-10-09T21:58:07.497Z,101731.31
2022-10-09T22:00:34.994Z,101730.53
2022-10-09T22:03:01.850Z,101728.72
2022-10-09T22:05:28.702Z,101724.53
2022-10-09T22:07:55.591Z,101715.19
2022-10-09T22:10:22.788Z,101719.84
2022-10-09T22:12:49.925Z,101721.88
2022-10-09T22:15:17.116Z,101721.88
2022-10-09T22:17:43.811Z,101717.16
2022-10-09T22:20:10.612Z,101715.56
2022-10-09T22:22:37.364Z,101714.00
2022-10-09T22:25:04.618Z,101713.47
2022-10-09T22:27:31.413Z,101706.94
2022-10-09T22:29:58.171Z,101706.41
2022-10-09T22:32:24.978Z,101712.59
2022-10-09T22:34:52.280Z,101706.09
2022-10-09T22:37:19.146Z,101701.66
2022-10-09T22:39:45.951Z,101703.72
2022-10-09T22:42:12.697Z,101701.91
2022-10-09T22:44:39.619Z,101697.50
2022-10-09T22:47:06.428Z,101698.28
2022-10-09T22:49:33.269Z,101695.91
2022-10-09T22:52:00.083Z,101696.16
2022-10-09T22:54:26.844Z,101691.22
2022-10-09T22:56:53.634Z,101692.78
2022-10-09T22:59:20.386Z,101676.63
2022-10-09T23:01:54.756Z,101693.81
2022-10-09T23:04:23.158Z,101682.88
2022-10-09T23:06:56.110Z,101687.25
2022-10-09T23:09:25.526Z,101682.06
2022-10-09T23:11:52.569Z,101678.69
2022-10-09T23:14:19.458Z,101679.72
2022-10-09T23:16:46.463Z,101676.31
2022-10-09T23:19:13.513Z,101672.16
2022-10-09T23:21:42.251Z,101666.44
2022-10-09T23:24:11.594Z,101666.44
2022-10-09T23:26:39.624Z,101667.44
2022-10-09T23:29:09.179Z,101667.44
2022-10-09T23:31:36.844Z,101658.63
2022-10-09T23:34:05.575Z,101655.22
2022-10-09T23:36:32.985Z,101656.59
2022-10-09T23:39:01.966Z,101657.13
2022-10-09T23:41:29.373Z,101659.72
2022-10-09T23:43:56.231Z,101653.75
2022-10-09T23:46:25.376Z,101650.13
2022-10-09T23:48:52.881Z,101642.31
2022-10-09T23:51:21.576Z,101638.44
2022-10-09T23:53:48.517Z,101650.44
2022-10-09T23:56:28.376Z,101646.25
2022-10-09T23:58:56.444Z,101644.69
